Weather at General Mitchell International Airport

Public forecast

Using degrees Fahrenheit for public forecast. Weather courtesy of forecast.io.

Current aviation weather report (METAR) for General Mitchell International Airport

Retrieved 2020/10/28 01:52 UTC (32 minutes ago):

KMKE 280152Z 22008KT 10SM FEW250 01/M04 A3011 RMK AO2 SLP203 T00061039

Aviation forecast (TAF) for General Mitchell International Airport

Retrieved 2020-10-28 00:22 UTC (2 hours ago):

TAF KMKE 272320Z 2800/2906 24008KT P6SM SKC FM281000 24013KT P6SM SKC WS020/26040KT FM281300 24012G20KT P6SM SKC FM282000 25011KT P6SM SKC FM290200 28005KT P6SM SCT200